createdAt,value
2018-02-27T00:00:33.281Z,87.19
2018-02-27T00:01:33.296Z,87.38
2018-02-27T00:02:33.302Z,87.57
2018-02-27T00:03:33.345Z,87.00
2018-02-27T00:04:33.310Z,86.91
2018-02-27T00:05:33.322Z,87.19
2018-02-27T00:06:33.335Z,87.10
2018-02-27T00:07:33.341Z,86.72
2018-02-27T00:08:33.350Z,87.00
2018-02-27T00:09:33.357Z,87.38
2018-02-27T00:10:33.368Z,87.85
2018-02-27T00:11:33.381Z,87.95
2018-02-27T00:12:33.401Z,87.85
2018-02-27T00:13:33.394Z,87.95
2018-02-27T00:14:33.406Z,88.04
2018-02-27T00:15:33.412Z,87.66
2018-02-27T00:16:33.424Z,86.72
2018-02-27T00:17:33.462Z,86.63
2018-02-27T00:18:33.442Z,87.00
2018-02-27T00:19:33.460Z,86.82
2018-02-27T00:20:33.476Z,87.19
2018-02-27T00:21:33.469Z,87.10
2018-02-27T00:22:33.507Z,87.19
2018-02-27T00:23:33.507Z,87.29
2018-02-27T00:24:33.497Z,87.29
2018-02-27T00:25:33.503Z,87.29
2018-02-27T00:26:33.515Z,87.00
2018-02-27T00:27:33.523Z,86.44
2018-02-27T00:28:33.553Z,86.34
2018-02-27T00:29:33.566Z,86.72
2018-02-27T00:30:33.555Z,86.53
2018-02-27T00:31:33.562Z,87.10
2018-02-27T00:32:33.570Z,86.82
2018-02-27T00:33:33.585Z,86.82
2018-02-27T00:34:33.605Z,87.00
2018-02-27T00:35:33.594Z,87.00
2018-02-27T00:36:33.617Z,87.19
2018-02-27T00:37:33.627Z,86.34
2018-02-27T00:38:33.637Z,86.34
2018-02-27T00:39:33.634Z,86.06
2018-02-27T00:40:33.643Z,86.25
2018-02-27T00:41:33.649Z,86.06
2018-02-27T00:42:33.660Z,85.96
2018-02-27T00:43:33.673Z,85.96
2018-02-27T00:44:33.710Z,85.49
2018-02-27T00:45:33.715Z,85.49
2018-02-27T00:46:33.701Z,85.59
2018-02-27T00:47:33.785Z,85.68
2018-02-27T00:48:33.721Z,85.30
2018-02-27T00:49:33.724Z,85.49
2018-02-27T00:50:33.741Z,85.49
2018-02-27T00:51:33.744Z,85.49
2018-02-27T00:52:33.763Z,85.02
2018-02-27T00:53:33.893Z,84.83
2018-02-27T00:54:33.799Z,84.64
2018-02-27T00:55:33.775Z,84.36
2018-02-27T00:56:33.800Z,84.36
2018-02-27T00:57:33.801Z,84.08
2018-02-27T00:58:33.825Z,84.17
2018-02-27T00:59:33.813Z,84.08
2018-02-27T01:00:33.901Z,83.89
2018-02-27T01:01:33.839Z,83.23
2018-02-27T01:02:33.886Z,83.51
2018-02-27T01:03:33.852Z,83.33
2018-02-27T01:04:33.880Z,83.33
2018-02-27T01:05:33.889Z,82.95
2018-02-27T01:06:33.947Z,83.23
2018-02-27T01:07:33.894Z,83.23
2018-02-27T01:08:33.925Z,83.42
2018-02-27T01:09:33.927Z,83.23
2018-02-27T01:10:33.910Z,83.14
2018-02-27T01:11:33.937Z,82.19
2018-02-27T01:12:33.932Z,81.62
2018-02-27T01:13:33.940Z,81.05
2018-02-27T01:14:33.947Z,80.87
2018-02-27T01:15:34.044Z,80.68
2018-02-27T01:16:33.971Z,80.02
2018-02-27T01:17:33.989Z,79.64
2018-02-27T01:18:33.993Z,79.46
2018-02-27T01:19:33.994Z,78.89
2018-02-27T01:20:34.034Z,78.23
2018-02-27T01:21:34.016Z,78.32
2018-02-27T01:22:34.084Z,78.32
2018-02-27T01:23:34.028Z,77.75
2018-02-27T01:24:34.038Z,77.66
2018-02-27T01:25:34.061Z,77.47
2018-02-27T01:26:34.057Z,77.00
2018-02-27T01:27:34.077Z,77.28
2018-02-27T01:28:34.106Z,76.90
2018-02-27T01:29:34.091Z,76.62
2018-02-27T01:30:34.090Z,76.53
2018-02-27T01:31:34.096Z,77.28
2018-02-27T01:32:34.154Z,76.81
2018-02-27T01:33:34.111Z,76.62
2018-02-27T01:34:34.127Z,77.09
2018-02-27T01:35:34.142Z,77.28
2018-02-27T01:36:34.213Z,76.81
2018-02-27T01:37:34.150Z,76.81
2018-02-27T01:38:34.189Z,76.72
2018-02-27T01:39:34.175Z,77.15
2018-02-27T01:40:34.232Z,77.06
2018-02-27T01:41:34.214Z,77.25
2018-02-27T01:42:34.230Z,77.15
2018-02-27T01:43:34.240Z,76.77
2018-02-27T01:44:34.208Z,77.19
2018-02-27T01:45:34.223Z,77.34
2018-02-27T01:46:34.257Z,76.68
2018-02-27T01:47:34.282Z,77.56
2018-02-27T01:48:34.245Z,77.37
2018-02-27T01:49:34.274Z,77.25
2018-02-27T01:50:34.288Z,76.96
2018-02-27T01:51:34.290Z,77.44
2018-02-27T01:52:34.281Z,77.53
2018-02-27T01:53:34.295Z,77.62
2018-02-27T01:54:34.317Z,77.53
2018-02-27T01:55:34.387Z,77.62
2018-02-27T01:56:34.320Z,77.44
2018-02-27T01:57:34.323Z,77.53
2018-02-27T01:58:34.333Z,76.96
2018-02-27T01:59:34.345Z,77.06
2018-02-27T02:00:34.358Z,77.34
2018-02-27T02:01:34.392Z,77.91
2018-02-27T02:02:34.375Z,77.62
2018-02-27T02:03:34.379Z,78.09
2018-02-27T02:04:34.384Z,78.09
2018-02-27T02:05:34.395Z,77.91
2018-02-27T02:06:34.403Z,77.44
2018-02-27T02:07:34.410Z,78.09
2018-02-27T02:08:34.424Z,77.81
2018-02-27T02:09:34.489Z,77.81
2018-02-27T02:10:34.433Z,77.81
2018-02-27T02:11:34.446Z,77.81
2018-02-27T02:12:34.454Z,78.00
2018-02-27T02:13:34.467Z,77.81
2018-02-27T02:14:34.471Z,78.19
2018-02-27T02:15:34.484Z,78.28
2018-02-27T02:16:34.493Z,78.38
2018-02-27T02:17:34.496Z,78.19
2018-02-27T02:18:34.523Z,78.00
2018-02-27T02:19:34.535Z,78.28
2018-02-27T02:20:34.524Z,78.38
2018-02-27T02:21:34.532Z,78.47
2018-02-27T02:22:34.591Z,78.38
2018-02-27T02:23:34.575Z,78.09
2018-02-27T02:24:34.598Z,78.47
2018-02-27T02:25:34.579Z,78.28
2018-02-27T02:26:34.583Z,78.56
2018-02-27T02:27:34.602Z,78.19
2018-02-27T02:28:34.590Z,78.75
2018-02-27T02:29:34.602Z,79.03
2018-02-27T02:30:34.636Z,79.03
2018-02-27T02:31:34.615Z,78.56
2018-02-27T02:32:34.640Z,78.56
2018-02-27T02:33:34.642Z,78.56
2018-02-27T02:34:34.649Z,78.85
2018-02-27T02:35:34.647Z,79.13
2018-02-27T02:36:34.719Z,79.32
2018-02-27T02:37:34.686Z,78.75
2018-02-27T02:38:34.683Z,78.85
2018-02-27T02:39:34.684Z,78.66
2018-02-27T02:40:34.733Z,79.22
2018-02-27T02:41:34.700Z,79.13
2018-02-27T02:42:34.717Z,79.22
2018-02-27T02:43:34.735Z,79.13
2018-02-27T02:44:34.738Z,79.22
2018-02-27T02:45:34.769Z,79.32
2018-02-27T02:46:34.754Z,78.94
2018-02-27T02:47:34.779Z,78.94
2018-02-27T02:48:34.766Z,79.13
2018-02-27T02:49:34.776Z,78.94
2018-02-27T02:50:34.796Z,78.56
2018-02-27T02:51:34.816Z,78.19
2018-02-27T02:52:34.794Z,78.75
2018-02-27T02:53:34.818Z,78.38
2018-02-27T02:54:34.833Z,78.38
2018-02-27T02:55:34.830Z,78.28
2018-02-27T02:56:34.845Z,77.91
2018-02-27T02:57:34.859Z,77.91
2018-02-27T02:58:34.850Z,77.72
2018-02-27T02:59:34.856Z,77.53
2018-02-27T03:00:34.884Z,77.91
2018-02-27T03:01:34.873Z,77.91
2018-02-27T03:02:34.883Z,77.72
2018-02-27T03:03:34.900Z,77.53
2018-02-27T03:04:34.897Z,77.91
2018-02-27T03:05:34.917Z,78.38
2018-02-27T03:06:34.926Z,77.91
2018-02-27T03:07:34.931Z,78.00
2018-02-27T03:08:34.933Z,77.91
2018-02-27T03:09:34.954Z,77.81
2018-02-27T03:10:34.948Z,77.81
2018-02-27T03:11:34.959Z,78.00
2018-02-27T03:12:34.972Z,77.91
2018-02-27T03:13:34.970Z,77.91
2018-02-27T03:14:34.982Z,78.47
2018-02-27T03:15:35.001Z,78.47
2018-02-27T03:16:34.996Z,77.81
2018-02-27T03:17:35.007Z,77.72
2018-02-27T03:18:35.017Z,78.47
2018-02-27T03:19:35.027Z,78.38
2018-02-27T03:20:35.042Z,77.91
2018-02-27T03:21:35.056Z,77.91
2018-02-27T03:22:35.104Z,77.44
2018-02-27T03:23:35.056Z,77.91
2018-02-27T03:24:35.067Z,77.62
2018-02-27T03:25:35.078Z,77.91
2018-02-27T03:26:35.090Z,77.62
2018-02-27T03:27:35.098Z,77.91
2018-02-27T03:28:35.099Z,77.91
2018-02-27T03:29:35.133Z,78.56
2018-02-27T03:30:35.121Z,78.38
2018-02-27T03:31:35.126Z,78.56
2018-02-27T03:32:35.130Z,78.47
2018-02-27T03:33:35.151Z,78.66
2018-02-27T03:34:35.156Z,78.47
2018-02-27T03:35:35.159Z,78.47
2018-02-27T03:36:35.166Z,78.28
2018-02-27T03:37:35.177Z,78.47
2018-02-27T03:38:35.187Z,78.38
2018-02-27T03:39:35.210Z,78.56
2018-02-27T03:40:35.196Z,78.66
2018-02-27T03:41:35.212Z,78.47
2018-02-27T03:42:35.220Z,78.85
2018-02-27T03:43:35.224Z,78.56
2018-02-27T03:44:35.232Z,78.75
2018-02-27T03:45:35.262Z,78.75
2018-02-27T03:46:35.270Z,78.75
2018-02-27T03:47:35.269Z,78.38
2018-02-27T03:48:35.278Z,78.66
2018-02-27T03:49:35.317Z,78.47
2018-02-27T03:50:35.285Z,78.56
2018-02-27T03:51:35.296Z,78.38
2018-02-27T03:52:35.299Z,78.38
2018-02-27T03:53:35.306Z,78.00
2018-02-27T03:54:35.317Z,77.72
2018-02-27T03:55:35.353Z,77.91
2018-02-27T03:56:35.332Z,77.91
2018-02-27T03:57:35.346Z,78.28
2018-02-27T03:58:35.349Z,78.38
2018-02-27T03:59:35.361Z,78.56
2018-02-27T04:00:35.365Z,78.66
2018-02-27T04:01:35.373Z,78.66
2018-02-27T04:02:35.386Z,78.38
2018-02-27T04:03:35.388Z,78.38
2018-02-27T04:04:35.397Z,78.09
2018-02-27T04:05:35.408Z,78.56
2018-02-27T04:06:35.417Z,78.28
2018-02-27T04:07:35.426Z,78.38
2018-02-27T04:08:35.446Z,78.38
2018-02-27T04:09:35.446Z,78.28
2018-02-27T04:10:35.449Z,78.38
2018-02-27T04:11:35.457Z,78.47
2018-02-27T04:12:35.463Z,78.56
2018-02-27T04:13:35.473Z,78.66
2018-02-27T04:14:35.480Z,79.13
2018-02-27T04:15:35.489Z,79.22
2018-02-27T04:16:35.499Z,78.94
2018-02-27T04:17:35.536Z,79.03
2018-02-27T04:18:35.516Z,78.94
2018-02-27T04:19:35.523Z,79.13
2018-02-27T04:20:35.530Z,79.60
2018-02-27T04:21:35.586Z,79.32
2018-02-27T04:22:35.554Z,79.50
2018-02-27T04:23:35.554Z,79.60
2018-02-27T04:24:35.562Z,79.60
2018-02-27T04:25:35.577Z,79.56
2018-02-27T04:26:35.587Z,79.75
2018-02-27T04:27:35.629Z,79.85
2018-02-27T04:28:35.601Z,79.66
2018-02-27T04:29:35.610Z,79.37
2018-02-27T04:30:35.619Z,79.56
2018-02-27T04:31:35.624Z,79.50
2018-02-27T04:32:35.631Z,79.47
2018-02-27T04:33:35.638Z,79.98
2018-02-27T04:34:35.665Z,79.79
2018-02-27T04:35:35.653Z,79.50
2018-02-27T04:36:35.663Z,79.60
2018-02-27T04:37:35.673Z,79.37
2018-02-27T04:38:35.682Z,79.41
2018-02-27T04:39:35.687Z,79.41
2018-02-27T04:40:35.697Z,79.60
2018-02-27T04:41:35.705Z,80.07
2018-02-27T04:42:35.722Z,79.98
2018-02-27T04:43:35.725Z,79.79
2018-02-27T04:44:35.727Z,79.94
2018-02-27T04:45:35.737Z,80.22
2018-02-27T04:46:35.746Z,80.54
2018-02-27T04:47:35.753Z,80.36
2018-02-27T04:48:35.764Z,80.45
2018-02-27T04:49:35.770Z,80.54
2018-02-27T04:50:35.781Z,80.36
2018-02-27T04:51:35.788Z,80.51
2018-02-27T04:52:35.792Z,80.22
2018-02-27T04:53:35.805Z,80.69
2018-02-27T04:54:35.810Z,80.69
2018-02-27T04:55:35.816Z,80.60
2018-02-27T04:56:35.827Z,80.51
2018-02-27T04:57:35.839Z,80.88
2018-02-27T04:58:35.849Z,80.51
2018-02-27T04:59:35.852Z,80.41
2018-02-27T05:00:35.859Z,80.69
2018-02-27T05:01:35.870Z,80.60
2018-02-27T05:02:35.877Z,80.79
2018-02-27T05:03:35.884Z,80.69
2018-02-27T05:04:35.892Z,80.69
2018-02-27T05:05:35.902Z,80.98
2018-02-27T05:06:35.909Z,81.35
2018-02-27T05:07:35.917Z,80.88
2018-02-27T05:08:35.925Z,81.35
2018-02-27T05:09:35.948Z,81.35
2018-02-27T05:10:35.942Z,81.35
2018-02-27T05:11:35.948Z,81.45
2018-02-27T05:12:35.959Z,81.21
2018-02-27T05:13:35.970Z,81.54
2018-02-27T05:14:35.978Z,81.45
2018-02-27T05:15:35.984Z,81.45
2018-02-27T05:16:35.994Z,81.07
2018-02-27T05:17:35.999Z,81.35
2018-02-27T05:18:36.011Z,81.16
2018-02-27T05:19:36.022Z,81.07
2018-02-27T05:20:36.027Z,81.63
2018-02-27T05:21:36.032Z,81.54
2018-02-27T05:22:36.042Z,81.54
2018-02-27T05:23:36.051Z,81.54
2018-02-27T05:24:36.061Z,81.92
2018-02-27T05:25:36.070Z,82.01
2018-02-27T05:26:36.082Z,81.54
2018-02-27T05:27:36.084Z,81.35
2018-02-27T05:28:36.091Z,80.98
2018-02-27T05:29:36.102Z,81.26
2018-02-27T05:30:36.129Z,81.26
2018-02-27T05:31:36.116Z,81.45
2018-02-27T05:32:36.125Z,81.54
2018-02-27T05:33:36.132Z,82.01
2018-02-27T05:34:36.159Z,82.20
2018-02-27T05:35:36.182Z,82.48
2018-02-27T05:36:36.161Z,82.20
2018-02-27T05:37:36.171Z,81.82
2018-02-27T05:38:36.173Z,83.24
2018-02-27T05:39:36.180Z,83.52
2018-02-27T05:40:36.203Z,83.43
2018-02-27T05:41:36.200Z,83.52
2018-02-27T05:42:36.207Z,83.99
2018-02-27T05:43:36.227Z,84.09
2018-02-27T05:44:36.223Z,84.28
2018-02-27T05:45:36.236Z,84.56
2018-02-27T05:46:36.245Z,84.47
2018-02-27T05:47:36.246Z,85.03
2018-02-27T05:48:36.265Z,84.65
2018-02-27T05:49:36.279Z,84.75
2018-02-27T05:50:36.274Z,84.65
2018-02-27T05:51:36.289Z,84.18
2018-02-27T05:52:36.290Z,84.28
2018-02-27T05:53:36.295Z,84.28
2018-02-27T05:54:36.318Z,84.18
2018-02-27T05:55:36.310Z,84.65
2018-02-27T05:56:36.326Z,84.37
2018-02-27T05:57:36.329Z,84.47
2018-02-27T05:58:36.333Z,84.56
2018-02-27T05:59:36.345Z,85.03
2018-02-27T06:00:36.357Z,84.47
2018-02-27T06:01:36.359Z,84.84
2018-02-27T06:02:36.371Z,84.84
2018-02-27T06:03:36.404Z,85.03
2018-02-27T06:04:36.386Z,84.75
2018-02-27T06:05:36.392Z,85.03
2018-02-27T06:06:36.404Z,85.03
2018-02-27T06:07:36.407Z,85.50
2018-02-27T06:08:36.416Z,85.78
2018-02-27T06:09:36.430Z,85.69
2018-02-27T06:10:36.437Z,85.50
2018-02-27T06:11:36.450Z,85.50
2018-02-27T06:12:36.449Z,85.88
2018-02-27T06:13:36.465Z,85.69
2018-02-27T06:14:36.465Z,86.44
2018-02-27T06:15:36.481Z,86.54
2018-02-27T06:16:36.503Z,86.35
2018-02-27T06:17:36.503Z,86.44
2018-02-27T06:18:36.501Z,85.69
2018-02-27T06:19:36.552Z,86.54
2018-02-27T06:20:36.512Z,86.07
2018-02-27T06:21:36.527Z,86.44
2018-02-27T06:22:36.533Z,86.44
2018-02-27T06:23:36.542Z,86.54
2018-02-27T06:24:36.574Z,86.35
2018-02-27T06:25:36.558Z,86.82
2018-02-27T06:26:36.563Z,86.72
2018-02-27T06:27:36.573Z,87.19
2018-02-27T06:28:36.581Z,87.01
2018-02-27T06:29:36.588Z,87.67
2018-02-27T06:30:36.595Z,87.19
2018-02-27T06:31:36.614Z,87.38
2018-02-27T06:32:36.615Z,87.38
2018-02-27T06:33:36.624Z,87.10
2018-02-27T06:34:36.640Z,87.48
2018-02-27T06:35:36.638Z,87.57
2018-02-27T06:36:36.644Z,87.48
2018-02-27T06:37:36.652Z,86.82
2018-02-27T06:38:36.659Z,86.82
2018-02-27T06:39:36.670Z,86.91
2018-02-27T06:40:36.674Z,87.57
2018-02-27T06:41:36.692Z,87.19
2018-02-27T06:42:36.700Z,87.38
2018-02-27T06:43:36.704Z,87.38
2018-02-27T06:44:36.710Z,87.38
2018-02-27T06:45:36.735Z,87.48
2018-02-27T06:46:36.747Z,86.91
2018-02-27T06:47:36.745Z,86.82
2018-02-27T06:48:36.740Z,87.01
2018-02-27T06:49:36.757Z,86.63
2018-02-27T06:50:36.765Z,86.72
2018-02-27T06:51:36.768Z,86.82
2018-02-27T06:52:36.776Z,87.10
2018-02-27T06:53:36.790Z,87.19
2018-02-27T06:54:36.792Z,86.91
2018-02-27T06:55:36.807Z,87.01
2018-02-27T06:56:36.817Z,87.01
2018-02-27T06:57:36.825Z,87.01
2018-02-27T06:58:36.823Z,86.72
2018-02-27T06:59:36.840Z,86.35
2018-02-27T07:00:36.841Z,86.91
2018-02-27T07:01:36.853Z,86.54
2018-02-27T07:02:36.865Z,86.72
2018-02-27T07:03:36.868Z,86.72
2018-02-27T07:04:36.874Z,86.82
2018-02-27T07:05:36.881Z,86.35
2018-02-27T07:06:36.891Z,86.49
2018-02-27T07:07:36.903Z,86.35
2018-02-27T07:08:36.913Z,86.25
2018-02-27T07:09:36.922Z,86.35
2018-02-27T07:10:36.929Z,86.91
2018-02-27T07:11:36.937Z,86.96
2018-02-27T07:12:36.973Z,86.63
2018-02-27T07:13:36.948Z,86.25
2018-02-27T07:14:36.960Z,86.72
2018-02-27T07:15:36.968Z,87.34
2018-02-27T07:16:36.975Z,86.77
2018-02-27T07:17:36.984Z,86.87
2018-02-27T07:18:36.995Z,86.58
2018-02-27T07:19:37.016Z,86.68
2018-02-27T07:20:37.054Z,86.49
2018-02-27T07:21:37.017Z,86.40
2018-02-27T07:22:37.052Z,86.49
2018-02-27T07:23:37.032Z,86.49
2018-02-27T07:24:37.045Z,86.58
2018-02-27T07:25:37.056Z,86.30
2018-02-27T07:26:37.065Z,86.77
2018-02-27T07:27:37.072Z,86.40
2018-02-27T07:28:37.078Z,86.30
2018-02-27T07:29:37.086Z,86.30
2018-02-27T07:30:37.098Z,86.58
2018-02-27T07:31:37.120Z,86.58
2018-02-27T07:32:37.136Z,85.92
2018-02-27T07:33:37.123Z,85.92
2018-02-27T07:34:37.136Z,86.68
2018-02-27T07:35:37.154Z,86.58
2018-02-27T07:36:37.160Z,85.83
2018-02-27T07:37:37.156Z,86.30
2018-02-27T07:38:37.162Z,86.58
2018-02-27T07:39:37.170Z,85.92
2018-02-27T07:40:37.226Z,85.64
2018-02-27T07:41:37.198Z,86.11
2018-02-27T07:42:37.205Z,85.64
2018-02-27T07:43:37.213Z,85.92
2018-02-27T07:44:37.225Z,85.64
2018-02-27T07:45:37.236Z,85.83
2018-02-27T07:46:37.243Z,86.58
2018-02-27T07:47:37.250Z,85.36
2018-02-27T07:48:37.298Z,85.64
2018-02-27T07:49:37.266Z,85.45
2018-02-27T07:50:37.275Z,85.64
2018-02-27T07:51:37.310Z,84.79
2018-02-27T07:52:37.326Z,84.88
2018-02-27T07:53:37.317Z,84.22
2018-02-27T07:54:37.361Z,84.22
2018-02-27T07:55:37.314Z,84.60
2018-02-27T07:56:37.332Z,84.79
2018-02-27T07:57:37.338Z,84.13
2018-02-27T07:58:37.358Z,84.32
2018-02-27T07:59:37.351Z,84.60
2018-02-27T08:00:37.369Z,84.69
2018-02-27T08:01:37.371Z,84.22
2018-02-27T08:02:37.469Z,84.32
2018-02-27T08:03:37.395Z,83.75
2018-02-27T08:04:37.425Z,83.84
2018-02-27T08:05:37.407Z,83.84
2018-02-27T08:06:37.407Z,83.84
2018-02-27T08:07:37.421Z,84.13
2018-02-27T08:08:37.442Z,83.65
2018-02-27T08:09:37.451Z,84.03
2018-02-27T08:10:37.449Z,83.65
2018-02-27T08:11:37.464Z,83.65
2018-02-27T08:12:37.475Z,83.37
2018-02-27T08:13:37.513Z,83.00
2018-02-27T08:14:37.504Z,83.00
2018-02-27T08:15:37.506Z,83.18
2018-02-27T08:16:37.594Z,83.28
2018-02-27T08:17:37.517Z,83.75
2018-02-27T08:18:37.524Z,83.70
2018-02-27T08:19:37.538Z,83.42
2018-02-27T08:20:37.638Z,82.66
2018-02-27T08:21:37.688Z,83.23
2018-02-27T08:22:37.564Z,82.57
2018-02-27T08:23:37.627Z,82.47
2018-02-27T08:24:37.573Z,82.66
2018-02-27T08:25:37.582Z,83.14
2018-02-27T08:26:37.699Z,82.85
2018-02-27T08:27:37.656Z,82.10
2018-02-27T08:28:37.650Z,82.00
2018-02-27T08:29:37.620Z,81.05
2018-02-27T08:30:37.652Z,81.34
2018-02-27T08:31:37.666Z,81.43
2018-02-27T08:32:37.654Z,80.96
2018-02-27T08:33:37.671Z,81.15
2018-02-27T08:34:37.674Z,80.40
2018-02-27T08:35:37.698Z,80.96
2018-02-27T08:36:37.782Z,80.58
2018-02-27T08:37:37.742Z,80.49
2018-02-27T08:38:37.713Z,80.58
2018-02-27T08:39:37.718Z,80.11
2018-02-27T08:40:37.793Z,79.74
2018-02-27T08:41:38.747Z,79.27
2018-02-27T08:42:37.814Z,78.70
2018-02-27T08:43:38.085Z,78.98
2018-02-27T08:44:40.008Z,78.98
2018-02-27T08:45:37.774Z,78.51
2018-02-27T08:46:37.789Z,78.79
2018-02-27T08:47:37.793Z,78.60
2018-02-27T08:48:37.921Z,78.51
2018-02-27T08:49:39.033Z,78.70
2018-02-27T08:50:38.239Z,78.32
2018-02-27T08:51:37.951Z,77.75
2018-02-27T08:52:38.543Z,77.75
2018-02-27T08:53:37.994Z,77.85
2018-02-27T08:54:37.912Z,77.94
2018-02-27T08:55:37.961Z,77.56
2018-02-27T08:56:37.906Z,77.00
2018-02-27T08:57:37.893Z,76.72
2018-02-27T08:58:38.008Z,77.37
2018-02-27T08:59:37.968Z,77.47
2018-02-27T09:00:37.984Z,76.72
2018-02-27T09:01:37.984Z,75.78
2018-02-27T09:02:37.937Z,75.49
2018-02-27T09:03:38.171Z,75.40
2018-02-27T09:04:37.994Z,74.45
2018-02-27T09:05:38.500Z,75.40
2018-02-27T09:06:38.056Z,74.26
2018-02-27T09:07:37.987Z,74.17
2018-02-27T09:08:38.012Z,73.79
2018-02-27T09:09:38.006Z,73.22
2018-02-27T09:10:38.014Z,72.94
2018-02-27T09:11:38.023Z,73.13
2018-02-27T09:12:38.028Z,72.28
2018-02-27T09:13:38.156Z,72.56
2018-02-27T09:14:38.130Z,73.32
2018-02-27T09:15:38.084Z,73.32
2018-02-27T09:16:38.131Z,72.66
2018-02-27T09:17:38.080Z,71.75
2018-02-27T09:18:38.115Z,70.58
2018-02-27T09:19:38.142Z,70.30
2018-02-27T09:20:38.126Z,70.68
2018-02-27T09:21:38.126Z,70.11
2018-02-27T09:22:38.139Z,70.34
2018-02-27T09:23:38.175Z,70.53
2018-02-27T09:24:38.164Z,70.53
2018-02-27T09:25:38.260Z,69.54
2018-02-27T09:26:38.170Z,69.35
2018-02-27T09:27:38.185Z,69.96
2018-02-27T09:28:38.239Z,69.58
2018-02-27T09:29:38.214Z,69.01
2018-02-27T09:30:38.252Z,69.01
2018-02-27T09:31:38.243Z,68.73
2018-02-27T09:32:38.237Z,68.26
2018-02-27T09:33:38.242Z,68.26
2018-02-27T09:34:38.250Z,67.88
2018-02-27T09:35:38.280Z,67.60
2018-02-27T09:36:38.270Z,67.32
2018-02-27T09:37:38.282Z,68.07
2018-02-27T09:38:38.295Z,67.79
2018-02-27T09:39:38.296Z,67.50
2018-02-27T09:40:38.396Z,67.41
2018-02-27T09:41:38.336Z,66.84
2018-02-27T09:42:38.333Z,66.37
2018-02-27T09:43:39.110Z,67.22
2018-02-27T09:44:38.726Z,66.75
2018-02-27T09:45:38.481Z,66.18
2018-02-27T09:46:38.511Z,66.56
2018-02-27T09:47:38.385Z,67.03
2018-02-27T09:48:38.395Z,66.47
2018-02-27T09:49:38.402Z,65.71
2018-02-27T09:50:38.409Z,65.61
2018-02-27T09:51:38.423Z,65.14
2018-02-27T09:52:38.518Z,64.39
2018-02-27T09:53:38.438Z,64.01
2018-02-27T09:54:38.496Z,64.29
2018-02-27T09:55:38.466Z,64.86
2018-02-27T09:56:38.540Z,64.48
2018-02-27T09:57:38.485Z,64.11
2018-02-27T09:58:38.492Z,64.29
2018-02-27T09:59:38.569Z,63.45
2018-02-27T10:00:38.561Z,63.45
2018-02-27T10:01:38.573Z,63.26
2018-02-27T10:02:38.538Z,62.69
2018-02-27T10:03:38.562Z,62.31
2018-02-27T10:04:38.612Z,62.78
2018-02-27T10:05:38.643Z,63.63
2018-02-27T10:06:38.576Z,62.97
2018-02-27T10:07:38.591Z,63.35
2018-02-27T10:08:38.594Z,63.35
2018-02-27T10:09:38.617Z,62.78
2018-02-27T10:10:38.614Z,61.84
2018-02-27T10:11:38.703Z,61.93
2018-02-27T10:12:38.643Z,61.46
2018-02-27T10:13:38.684Z,61.46
2018-02-27T10:14:38.658Z,61.65
2018-02-27T10:15:38.657Z,61.55
2018-02-27T10:16:38.672Z,61.55
2018-02-27T10:17:38.713Z,61.55
2018-02-27T10:18:38.756Z,61.84
2018-02-27T10:19:38.793Z,61.27
2018-02-27T10:20:38.784Z,60.89
2018-02-27T10:21:38.718Z,60.24
2018-02-27T10:22:38.751Z,60.33
2018-02-27T10:23:38.748Z,60.05
2018-02-27T10:24:38.749Z,59.86
2018-02-27T10:25:38.761Z,60.14
2018-02-27T10:26:38.853Z,60.27
2018-02-27T10:27:38.822Z,60.46
2018-02-27T10:28:38.814Z,59.32
2018-02-27T10:29:38.878Z,59.13
2018-02-27T10:30:38.875Z,58.00
2018-02-27T10:31:38.823Z,57.97
2018-02-27T10:32:38.866Z,58.56
2018-02-27T10:33:38.846Z,58.34
2018-02-27T10:34:38.898Z,58.44
2018-02-27T10:35:38.875Z,58.34
2018-02-27T10:36:39.043Z,58.15
2018-02-27T10:37:38.984Z,58.44
2018-02-27T10:38:38.894Z,57.97
2018-02-27T10:39:38.926Z,58.53
2018-02-27T10:40:39.048Z,58.28
2018-02-27T10:41:39.010Z,58.56
2018-02-27T10:42:38.991Z,58.94
2018-02-27T10:43:39.099Z,58.65
2018-02-27T10:44:39.069Z,58.47
2018-02-27T10:45:39.918Z,58.65
2018-02-27T10:46:39.164Z,58.00
2018-02-27T10:47:39.257Z,58.84
2018-02-27T10:48:39.131Z,58.56
2018-02-27T10:49:39.436Z,58.47
2018-02-27T10:50:39.054Z,59.41
2018-02-27T10:51:40.233Z,59.32
2018-02-27T10:52:39.064Z,59.60
2018-02-27T10:53:39.118Z,60.08
2018-02-27T10:54:39.067Z,59.79
2018-02-27T10:55:39.085Z,59.13
2018-02-27T10:56:39.091Z,59.13
2018-02-27T10:57:39.434Z,58.18
2018-02-27T10:58:39.182Z,59.03
2018-02-27T10:59:39.117Z,59.03
2018-02-27T11:00:39.291Z,59.79
2018-02-27T11:01:39.426Z,59.70
2018-02-27T11:02:39.504Z,59.13
2018-02-27T11:03:39.924Z,59.32
2018-02-27T11:04:39.654Z,59.32
2018-02-27T11:05:40.890Z,59.32
2018-02-27T11:06:41.321Z,59.32
2018-02-27T11:07:39.909Z,59.32
2018-02-27T11:08:40.236Z,58.47
2018-02-27T11:09:39.535Z,58.65
2018-02-27T11:10:39.863Z,58.47
2018-02-27T11:11:41.573Z,58.65
2018-02-27T11:12:39.865Z,58.47
2018-02-27T11:13:39.636Z,58.47
2018-02-27T11:14:40.140Z,58.00
2018-02-27T11:15:39.610Z,58.47
2018-02-27T11:16:39.826Z,59.51
2018-02-27T11:17:39.857Z,59.13
2018-02-27T11:18:40.761Z,58.47
2018-02-27T11:19:39.441Z,58.18
2018-02-27T11:20:41.399Z,58.00
2018-02-27T11:21:42.370Z,58.18
2018-02-27T11:22:39.747Z,58.09
2018-02-27T11:23:39.871Z,58.00
2018-02-27T11:24:40.328Z,57.15
2018-02-27T11:25:41.930Z,58.09
2018-02-27T11:26:39.623Z,58.09
2018-02-27T11:27:39.636Z,57.43
2018-02-27T11:28:39.816Z,57.34
2018-02-27T11:29:39.550Z,58.09
2018-02-27T11:30:39.619Z,58.00
2018-02-27T11:31:40.006Z,58.28
2018-02-27T11:32:40.016Z,57.81
2018-02-27T11:33:39.501Z,57.81
2018-02-27T11:34:40.162Z,57.24
2018-02-27T11:35:39.710Z,57.34
2018-02-27T11:36:39.583Z,57.90
2018-02-27T11:37:39.628Z,57.53
2018-02-27T11:38:40.139Z,57.15
2018-02-27T11:39:40.202Z,57.24
2018-02-27T11:40:40.494Z,57.53
2018-02-27T11:41:39.577Z,56.77
2018-02-27T11:42:39.682Z,56.39
2018-02-27T11:43:39.942Z,57.34
2018-02-27T11:44:40.005Z,57.24
2018-02-27T11:45:39.680Z,57.34
2018-02-27T11:46:39.798Z,57.34
2018-02-27T11:47:39.812Z,57.43
2018-02-27T11:48:40.325Z,57.43
2018-02-27T11:49:39.762Z,57.43
2018-02-27T11:50:39.924Z,57.53
2018-02-27T11:51:40.519Z,57.34
2018-02-27T11:52:39.752Z,56.77
2018-02-27T11:53:39.705Z,57.08
2018-02-27T11:54:39.968Z,57.37
2018-02-27T11:55:40.074Z,57.34
2018-02-27T11:56:39.930Z,57.43
2018-02-27T11:57:39.810Z,57.15
2018-02-27T11:58:39.806Z,58.22
2018-02-27T11:59:41.159Z,57.65
2018-02-27T12:00:39.895Z,57.27
2018-02-27T12:01:39.820Z,56.99
2018-02-27T12:02:39.839Z,56.32
2018-02-27T12:03:39.923Z,56.61
2018-02-27T12:04:40.126Z,56.51
2018-02-27T12:05:40.101Z,56.42
2018-02-27T12:06:40.495Z,56.39
2018-02-27T12:07:40.244Z,56.30
2018-02-27T12:08:40.224Z,56.86
2018-02-27T12:09:40.027Z,56.77
2018-02-27T12:10:40.214Z,57.37
2018-02-27T12:11:40.487Z,57.37
2018-02-27T12:12:40.138Z,57.37
2018-02-27T12:13:40.153Z,56.70
2018-02-27T12:14:40.228Z,56.32
2018-02-27T12:15:40.028Z,56.32
2018-02-27T12:16:40.302Z,55.85
2018-02-27T12:17:39.975Z,56.13
2018-02-27T12:18:39.986Z,55.94
2018-02-27T12:19:40.512Z,55.76
2018-02-27T12:20:42.633Z,55.85
2018-02-27T12:21:40.494Z,55.76
2018-02-27T12:22:40.036Z,56.13
2018-02-27T12:23:40.040Z,56.23
2018-02-27T12:24:40.137Z,56.80
2018-02-27T12:25:40.170Z,57.27
2018-02-27T12:26:40.154Z,57.18
2018-02-27T12:27:40.215Z,57.37
2018-02-27T12:28:40.113Z,57.27
2018-02-27T12:29:40.274Z,57.27
2018-02-27T12:30:40.146Z,56.89
2018-02-27T12:31:40.206Z,57.18
2018-02-27T12:32:40.153Z,56.80
2018-02-27T12:33:40.261Z,56.13
2018-02-27T12:34:40.380Z,56.61
2018-02-27T12:35:40.366Z,56.70
2018-02-27T12:36:40.202Z,56.13
2018-02-27T12:37:40.204Z,56.80
2018-02-27T12:38:40.347Z,56.42
2018-02-27T12:39:40.310Z,57.46
2018-02-27T12:40:40.406Z,57.18
2018-02-27T12:41:40.537Z,57.08
2018-02-27T12:42:40.276Z,57.37
2018-02-27T12:43:40.335Z,57.27
2018-02-27T12:44:40.385Z,58.03
2018-02-27T12:45:40.577Z,58.12
2018-02-27T12:46:40.718Z,57.93
2018-02-27T12:47:40.600Z,58.03
2018-02-27T12:48:40.369Z,57.84
2018-02-27T12:49:45.434Z,57.37
2018-02-27T12:50:40.448Z,56.70
2018-02-27T12:51:40.394Z,56.32
2018-02-27T12:52:40.383Z,55.76